createdAt,value
2023-05-11T00:01:22.859Z,4.40
2023-05-11T00:11:24.831Z,4.32
2023-05-11T00:21:28.210Z,7.07
2023-05-11T00:31:30.617Z,2.75
2023-05-11T00:41:34.100Z,5.47
2023-05-11T00:51:36.713Z,3.28
2023-05-11T01:01:40.128Z,6.63
2023-05-11T01:11:47.377Z,5.50
2023-05-11T01:21:50.976Z,6.50
2023-05-11T01:31:56.271Z,8.00
2023-05-11T01:42:02.509Z,14.23
2023-05-11T01:52:08.298Z,4.68
2023-05-11T02:02:11.166Z,4.68
2023-05-11T02:12:17.626Z,5.72
2023-05-11T02:22:20.810Z,6.55
2023-05-11T02:32:26.616Z,8.25
2023-05-11T02:42:30.413Z,11.70
2023-05-11T02:52:40.969Z,7.40
2023-05-11T03:02:43.009Z,12.07
2023-05-11T03:12:46.736Z,14.88
2023-05-11T03:22:49.274Z,11.43
2023-05-11T03:32:52.823Z,13.57
2023-05-11T03:42:56.560Z,9.05
2023-05-11T03:53:00.552Z,11.95
2023-05-11T04:03:05.099Z,11.13
2023-05-11T04:13:08.507Z,14.40
2023-05-11T04:23:10.579Z,12.82
2023-05-11T04:33:13.874Z,14.73
2023-05-11T04:43:16.009Z,15.10
2023-05-11T04:53:19.311Z,11.02
2023-05-11T05:03:21.233Z,14.52
2023-05-11T05:13:24.552Z,13.23
2023-05-11T05:23:26.443Z,21.88
2023-05-11T05:33:29.733Z,18.10
2023-05-11T05:43:31.681Z,15.00
2023-05-11T05:53:34.965Z,11.38
2023-05-11T06:03:37.239Z,25.48
2023-05-11T06:13:40.641Z,28.02
2023-05-11T06:23:42.568Z,18.60
2023-05-11T06:33:45.878Z,15.00
2023-05-11T06:43:47.835Z,21.25
2023-05-11T06:53:51.144Z,18.75
2023-05-11T07:03:54.940Z,16.90
2023-05-11T07:13:58.316Z,23.08
2023-05-11T07:24:00.295Z,14.27
2023-05-11T07:34:03.924Z,21.92
2023-05-11T07:44:06.104Z,14.77
2023-05-11T07:54:09.413Z,12.43
2023-05-11T08:04:11.389Z,13.88
2023-05-11T08:14:14.725Z,10.82
2023-05-11T08:24:16.727Z,8.02
2023-05-11T08:34:20.552Z,13.80
2023-05-11T08:44:23.096Z,11.07
2023-05-11T08:54:26.401Z,11.52
2023-05-11T09:04:28.596Z,8.15
2023-05-11T09:14:32.046Z,9.20
2023-05-11T09:24:34.063Z,7.90
2023-05-11T09:34:43.325Z,10.15
2023-05-11T09:44:46.163Z,7.50
2023-05-11T09:54:51.586Z,4.60
2023-05-11T10:04:54.928Z,6.22
2023-05-11T10:15:02.435Z,7.22
2023-05-11T10:25:05.208Z,6.35
2023-05-11T10:35:09.789Z,11.40
2023-05-11T10:45:19.410Z,4.63
2023-05-11T10:55:33.109Z,2.83
2023-05-11T11:05:35.748Z,3.90
2023-05-11T11:16:15.493Z,3.22
2023-05-11T11:26:40.134Z,6.57
2023-05-11T11:37:05.126Z,3.65
2023-05-11T11:47:17.859Z,4.70
2023-05-11T11:57:46.039Z,3.33
2023-05-11T12:07:49.962Z,3.33
2023-05-11T12:17:53.968Z,4.75
2023-05-11T12:27:57.130Z,6.90
2023-05-11T12:38:01.746Z,2.90
2023-05-11T12:48:05.480Z,3.58
2023-05-11T12:58:10.857Z,5.78
2023-05-11T13:08:12.806Z,1.73
2023-05-11T13:18:17.071Z,4.28
2023-05-11T13:28:20.485Z,3.53
2023-05-11T13:38:23.784Z,3.97
2023-05-11T13:48:25.728Z,6.43
2023-05-11T13:58:29.031Z,4.13
2023-05-11T14:08:31.011Z,3.40
2023-05-11T14:18:34.328Z,2.85
2023-05-11T14:28:36.299Z,5.05
2023-05-11T14:38:39.580Z,3.55
2023-05-11T14:48:42.148Z,6.03
2023-05-11T14:58:45.442Z,4.32
2023-05-11T15:08:47.490Z,5.78
2023-05-11T15:18:50.849Z,6.25
2023-05-11T15:28:52.839Z,3.60
2023-05-11T15:38:56.449Z,3.22
2023-05-11T15:48:59.984Z,2.30
2023-05-11T15:59:03.479Z,4.45
2023-05-11T16:09:05.454Z,2.72
2023-05-11T16:19:08.989Z,2.40
2023-05-11T16:29:11.025Z,2.67
2023-05-11T16:39:14.392Z,5.00
2023-05-11T16:49:16.830Z,4.85
2023-05-11T16:59:20.195Z,4.93
2023-05-11T17:09:22.136Z,3.20
2023-05-11T17:19:25.437Z,3.30
2023-05-11T17:29:27.477Z,4.85
2023-05-11T17:39:30.829Z,4.65
2023-05-11T17:49:33.204Z,4.65
2023-05-11T17:59:36.541Z,3.33
2023-05-11T18:09:38.501Z,4.57
2023-05-11T18:19:41.799Z,4.72
2023-05-11T18:29:43.700Z,2.67
2023-05-11T18:39:47.009Z,10.68
2023-05-11T18:49:49.259Z,4.38
2023-05-11T18:59:52.977Z,4.95
2023-05-11T19:09:55.114Z,5.57
2023-05-11T19:20:09.145Z,4.43
2023-05-11T19:30:11.344Z,4.97
2023-05-11T19:40:43.761Z,5.80
2023-05-11T19:50:36.854Z,4.80
2023-05-11T20:00:40.157Z,3.75
2023-05-11T20:10:42.070Z,7.82
2023-05-11T20:20:45.338Z,4.13
2023-05-11T20:30:47.265Z,6.63
2023-05-11T20:40:55.225Z,4.03
2023-05-11T20:50:57.181Z,5.78
2023-05-11T21:01:00.553Z,4.50
2023-05-11T21:11:02.690Z,7.18
2023-05-11T21:21:06.169Z,3.30
2023-05-11T21:31:08.140Z,4.85
2023-05-11T21:41:11.488Z,8.50
2023-05-11T21:51:13.450Z,5.32
2023-05-11T22:01:17.321Z,4.68
2023-05-11T22:11:19.280Z,4.18
2023-05-11T22:21:22.632Z,8.35
2023-05-11T22:31:24.694Z,6.20
2023-05-11T22:41:28.172Z,4.75
2023-05-11T22:51:30.108Z,4.63
2023-05-11T23:01:33.489Z,6.15
2023-05-11T23:11:35.548Z,4.25
2023-05-11T23:21:38.846Z,8.43
2023-05-11T23:31:40.837Z,5.03
2023-05-11T23:41:44.140Z,3.55
2023-05-11T23:51:46.133Z,5.15
